Time;durP1;ratioP1;P1;durP2;ratioP2;P2;SDS_P1;SDS_P2;PMS_P1;PMS_P2;Temp;Humidity;BMP_temperature;BMP_pressure;BME280_temperature;BME280_humidity;BME280_pressure;Samples;Min_cycle;Max_cycle;Signal;HPM_P1;HPM_P2
2022/02/01 00:00:02;;;;;;;12.00;4.25;;;;;;;;;;2079960;28;20365;-45
2022/02/01 00:01:14;;;;;;;9.52;3.85;;;;;;;;;;2074397;28;20141;-44
2022/02/01 00:02:23;;;;;;;10.27;4.15;;;;;;;;;;2079719;28;20531;-45
2022/02/01 00:03:28;;;;;;;7.35;3.47;;;;;;;;;;2079597;28;20099;-44
2022/02/01 00:04:36;;;;;;;10.20;3.85;;;;;;;;;;2104110;28;20055;-44
2022/02/01 00:05:43;;;;;;;6.82;3.80;;;;;;;;;;2111466;28;20079;-46
2022/02/01 00:06:55;;;;;;;11.25;4.47;;;;;;;;;;2114939;28;20507;-45
2022/02/01 00:08:07;;;;;;;9.43;3.63;;;;;;;;;;2111752;28;20075;-44
2022/02/01 00:09:17;;;;;;;7.20;3.22;;;;;;;;;;2106428;28;20048;-47
2022/02/01 00:10:23;;;;;;;9.35;3.88;;;;;;;;;;2106380;28;20519;-45
2022/02/01 00:11:34;;;;;;;8.48;3.60;;;;;;;;;;2107942;28;20071;-46
2022/02/01 00:12:48;;;;;;;5.57;3.08;;;;;;;;;;2106620;28;20044;-45
2022/02/01 00:14:00;;;;;;;8.75;3.78;;;;;;;;;;2108872;28;20127;-46
2022/02/01 00:15:26;;;;;;;;;;;;;;;;;;2115481;28;20495;-46
2022/02/01 00:16:57;;;;;;;7.95;3.63;;;;;;;;;;2114258;28;20056;-45
2022/02/01 00:18:16;;;;;;;8.98;3.22;;;;;;;;;;2106451;28;20040;-45
2022/02/01 00:19:36;;;;;;;5.45;3.13;;;;;;;;;;2109755;28;20039;-45
2022/02/01 00:34:03;;;;;;;8.80;3.58;;;;;;;;;;2109873;28;20071;-54
2022/02/01 00:35:26;;;;;;;8.02;3.85;;;;;;;;;;2114881;28;20082;-55
2022/02/01 00:36:34;;;;;;;7.82;3.97;;;;;;;;;;2112187;28;20051;-55
2022/02/01 00:37:37;;;;;;;9.00;4.28;;;;;;;;;;2106515;28;20616;-55
2022/02/01 00:38:47;;;;;;;10.05;4.20;;;;;;;;;;2106257;28;20051;-55
2022/02/01 00:39:55;;;;;;;8.88;4.07;;;;;;;;;;2110661;28;20122;-56
2022/02/01 00:41:03;;;;;;;12.13;3.97;;;;;;;;;;2114587;28;20124;-55
2022/02/01 00:42:04;;;;;;;8.60;4.53;;;;;;;;;;2111397;28;20047;-55
2022/02/01 00:43:06;;;;;;;14.20;4.38;;;;;;;;;;2113697;28;20088;-56
2022/02/01 00:44:07;;;;;;;7.20;4.20;;;;;;;;;;2114730;28;20048;-55
2022/02/01 00:45:08;;;;;;;9.17;4.00;;;;;;;;;;2110565;28;20040;-55
2022/02/01 00:46:09;;;;;;;7.15;3.63;;;;;;;;;;2106353;28;20075;-56
2022/02/01 00:47:11;;;;;;;10.05;4.65;;;;;;;;;;2105967;28;20047;-55
2022/02/01 00:48:12;;;;;;;12.57;4.90;;;;;;;;;;2110965;28;20094;-54
2022/02/01 00:49:13;;;;;;;6.10;2.90;;;;;;;;;;2114384;28;20433;-54
2022/02/01 00:50:16;;;;;;;11.50;4.50;;;;;;;;;;2115250;28;20493;-55
2022/02/01 00:51:17;;;;;;;10.88;4.60;;;;;;;;;;2112034;28;20407;-55
2022/02/01 00:52:19;;;;;;;8.20;3.70;;;;;;;;;;2114687;28;20100;-55
2022/02/01 00:53:26;;;;;;;12.13;4.88;;;;;;;;;;2112772;28;20135;-55
2022/02/01 00:54:27;;;;;;;7.35;3.17;;;;;;;;;;2106328;28;20043;-56
2022/02/01 00:55:28;;;;;;;9.93;4.07;;;;;;;;;;2105435;28;20083;-54
2022/02/01 00:56:30;;;;;;;8.80;4.18;;;;;;;;;;2109813;28;20503;-55
2022/02/01 00:57:31;;;;;;;10.32;4.75;;;;;;;;;;2114728;28;20142;-54
2022/02/01 00:58:32;;;;;;;10.35;3.85;;;;;;;;;;2114350;28;20075;-54
2022/02/01 00:59:33;;;;;;;11.32;4.43;;;;;;;;;;2111356;28;20055;-55
2022/02/01 01:00:34;;;;;;;7.90;3.65;;;;;;;;;;2114500;28;20052;-55
2022/02/01 01:01:35;;;;;;;11.07;4.43;;;;;;;;;;2109734;28;20044;-55
2022/02/01 01:02:37;;;;;;;9.57;3.70;;;;;;;;;;2111897;28;20126;-55
2022/02/01 01:03:39;;;;;;;8.85;4.85;;;;;;;;;;2114549;28;20405;-54
2022/02/01 01:04:41;;;;;;;8.18;3.63;;;;;;;;;;2112595;28;20058;-55
2022/02/01 01:05:42;;;;;;;7.28;3.08;;;;;;;;;;2113331;28;20071;-55
2022/02/01 01:06:43;;;;;;;10.57;3.53;;;;;;;;;;2114583;28;20457;-55
2022/02/01 01:07:45;;;;;;;6.90;3.40;;;;;;;;;;2109694;28;20382;-55
2022/02/01 01:08:46;;;;;;;10.68;3.47;;;;;;;;;;2114561;28;20086;-55
2022/02/01 01:09:48;;;;;;;7.50;3.92;;;;;;;;;;2114502;28;20043;-55
2022/02/01 01:10:49;;;;;;;10.85;4.20;;;;;;;;;;2111621;28;20079;-56
2022/02/01 01:11:54;;;;;;;10.45;4.78;;;;;;;;;;2114548;28;20131;-54
2022/02/01 01:13:05;;;;;;;7.03;4.15;;;;;;;;;;2114375;28;20071;-55
2022/02/01 01:15:30;;;;;;;7.55;3.63;;;;;;;;;;2088253;28;20136;-55
2022/02/01 01:17:02;;;;;;;10.93;3.78;;;;;;;;;;2110264;28;20484;-55
2022/02/01 01:18:35;;;;;;;7.72;3.15;;;;;;;;;;2114523;28;20056;-55
2022/02/01 01:43:39;;;;;;;8.05;3.63;;;;;;;;;;2114342;28;20071;-46
2022/02/01 01:44:47;;;;;;;9.05;4.28;;;;;;;;;;2111412;28;20114;-45
2022/02/01 01:46:05;;;;;;;10.77;4.70;;;;;;;;;;2114131;28;20456;-45
2022/02/01 01:53:43;;;;;;;9.00;4.03;;;;;;;;;;2106820;28;20607;-46
2022/02/01 01:54:45;;;;;;;8.77;4.20;;;;;;;;;;2105863;28;20048;-44
2022/02/01 01:55:47;;;;;;;11.30;4.28;;;;;;;;;;2108677;28;20132;-45
2022/02/01 01:56:48;;;;;;;13.77;5.20;;;;;;;;;;2113651;28;20548;-45
2022/02/01 01:57:49;;;;;;;9.18;3.53;;;;;;;;;;2114368;28;20044;-44
2022/02/01 01:58:50;;;;;;;9.82;4.60;;;;;;;;;;2112185;28;20164;-45
2022/02/01 01:59:51;;;;;;;14.40;4.43;;;;;;;;;;2114261;28;20048;-45
2022/02/01 02:01:11;;;;;;;11.98;4.78;;;;;;;;;;2113576;28;20142;-46
2022/02/01 02:02:12;;;;;;;14.55;5.18;;;;;;;;;;2106773;28;20055;-44
2022/02/01 02:03:13;;;;;;;13.15;5.93;;;;;;;;;;2105807;28;20048;-45
2022/02/01 02:04:15;;;;;;;8.48;3.85;;;;;;;;;;2108673;28;20036;-46
2022/02/01 02:05:16;;;;;;;8.90;4.32;;;;;;;;;;2113468;28;20446;-47
2022/02/01 02:06:18;;;;;;;13.23;4.88;;;;;;;;;;2114138;28;20043;-44
2022/02/01 02:07:19;;;;;;;8.40;4.18;;;;;;;;;;2113513;28;20119;-44
2022/02/01 02:08:20;;;;;;;9.60;4.00;;;;;;;;;;2117103;28;20131;-44
2022/02/01 02:09:22;;;;;;;11.80;4.65;;;;;;;;;;2117242;27;20361;-55
2022/02/01 02:10:29;;;;;;;10.93;4.25;;;;;;;;;;2115167;27;20040;-55
2022/02/01 02:11:38;;;;;;;9.23;4.88;;;;;;;;;;2117058;28;20090;-56
2022/02/01 02:12:54;;;;;;;9.77;4.07;;;;;;;;;;2114331;27;20055;-55
2022/02/01 02:15:23;;;;;;;11.05;3.72;;;;;;;;;;2111250;27;20075;-56
2022/02/01 02:16:25;;;;;;;12.68;5.50;;;;;;;;;;2108360;28;20569;-55
2022/02/01 02:17:26;;;;;;;11.75;4.47;;;;;;;;;;2108612;28;20076;-55
2022/02/01 02:18:28;;;;;;;9.20;4.40;;;;;;;;;;2112877;27;20138;-55
2022/02/01 02:19:30;;;;;;;7.80;3.78;;;;;;;;;;2116966;28;20131;-55
2022/02/01 02:20:38;;;;;;;9.98;4.88;;;;;;;;;;2117578;27;20098;-55
2022/02/01 02:21:44;;;;;;;8.63;4.13;;;;;;;;;;2109187;28;20067;-54
2022/02/01 02:22:45;;;;;;;13.57;4.15;;;;;;;;;;2108491;28;20059;-54
2022/02/01 02:23:46;;;;;;;9.93;3.07;;;;;;;;;;2111190;27;20055;-55
2022/02/01 02:24:47;;;;;;;10.73;5.22;;;;;;;;;;2115656;28;20138;-55
2022/02/01 02:25:49;;;;;;;9.82;4.78;;;;;;;;;;2116877;28;20054;-55
2022/02/01 02:26:51;;;;;;;11.35;5.43;;;;;;;;;;2113856;27;20154;-55
2022/02/01 02:27:53;;;;;;;8.60;4.00;;;;;;;;;;2117217;28;20135;-55
2022/02/01 02:28:54;;;;;;;9.18;5.07;;;;;;;;;;2116313;28;20512;-54
2022/02/01 02:29:55;;;;;;;9.52;3.85;;;;;;;;;;2112881;28;21403;-55
2022/02/01 02:30:56;;;;;;;9.03;4.07;;;;;;;;;;2117095;28;20054;-44
2022/02/01 02:31:58;;;;;;;8.88;4.50;;;;;;;;;;2116834;27;20097;-45
2022/02/01 02:33:04;;;;;;;15.63;4.85;;;;;;;;;;2115227;28;20401;-44
2022/02/01 02:34:08;;;;;;;10.82;3.53;;;;;;;;;;2116946;28;20075;-45
2022/02/01 02:35:09;;;;;;;12.05;4.45;;;;;;;;;;2110919;27;20096;-48
2022/02/01 02:36:14;;;;;;;11.73;5.03;;;;;;;;;;2116925;28;20082;-44
2022/02/01 02:37:18;;;;;;;8.80;4.18;;;;;;;;;;2117319;27;20050;-45
2022/02/01 02:38:27;;;;;;;11.77;5.22;;;;;;;;;;2109828;28;20390;-45
2022/02/01 02:39:32;;;;;;;12.63;4.53;;;;;;;;;;2108511;28;20413;-45
2022/02/01 02:40:45;;;;;;;8.98;3.92;;;;;;;;;;2107687;28;20082;-45
2022/02/01 02:41:52;;;;;;;10.93;4.25;;;;;;;;;;2116933;28;20130;-45
2022/02/01 02:45:32;;;;;;;5.85;3.17;;;;;;;;;;2108504;28;20052;-55
2022/02/01 02:46:33;;;;;;;9.80;3.33;;;;;;;;;;2112996;27;20054;-55
2022/02/01 02:47:35;;;;;;;10.77;4.70;;;;;;;;;;2116943;28;20089;-55
2022/02/01 02:48:35;;;;;;;9.80;4.30;;;;;;;;;;2117610;27;20043;-54
2022/02/01 02:49:37;;;;;;;10.03;4.03;;;;;;;;;;2114181;27;20175;-55
2022/02/01 02:50:38;;;;;;;9.85;4.35;;;;;;;;;;2116686;28;20078;-55
2022/02/01 02:51:39;;;;;;;8.77;4.53;;;;;;;;;;2115779;27;20043;-55
2022/02/01 02:52:41;;;;;;;13.48;3.85;;;;;;;;;;2109316;28;20513;-55
2022/02/01 02:53:42;;;;;;;9.13;4.28;;;;;;;;;;2108463;28;20131;-55
2022/02/01 02:54:43;;;;;;;8.45;4.30;;;;;;;;;;2111346;27;20349;-56
2022/02/01 02:55:44;;;;;;;7.45;4.32;;;;;;;;;;2115820;28;20067;-56
2022/02/01 02:56:46;;;;;;;8.77;3.80;;;;;;;;;;2116876;28;20044;-55
2022/02/01 02:57:47;;;;;;;11.57;4.22;;;;;;;;;;2113440;27;20122;-55
2022/02/01 02:58:51;;;;;;;10.73;4.20;;;;;;;;;;2116753;28;20044;-55
2022/02/01 02:59:53;;;;;;;11.45;4.93;;;;;;;;;;2116981;27;20122;-55
2022/02/01 03:00:53;;;;;;;8.93;4.38;;;;;;;;;;2112235;27;20044;-56
2022/02/01 03:01:55;;;;;;;8.13;3.63;;;;;;;;;;2108318;28;20137;-55
2022/02/01 03:02:57;;;;;;;7.15;3.85;;;;;;;;;;2109930;27;20050;-55
2022/02/01 03:03:58;;;;;;;10.68;4.53;;;;;;;;;;2109250;28;20048;-55
2022/02/01 03:04:59;;;;;;;11.93;4.93;;;;;;;;;;2108356;28;20134;-55
2022/02/01 03:06:05;;;;;;;9.43;4.40;;;;;;;;;;2111525;27;20039;-54
2022/02/01 03:07:07;;;;;;;9.18;4.90;;;;;;;;;;2108200;28;20090;-55
2022/02/01 03:08:07;;;;;;;;;;;;;;;;;;2108786;28;20178;-55
2022/02/01 03:09:09;;;;;;;14.93;4.32;;;;;;;;;;2110907;28;19965;-55
2022/02/01 03:10:10;;;;;;;8.77;4.05;;;;;;;;;;2116813;28;20464;-55
2022/02/01 03:11:13;;;;;;;9.68;4.43;;;;;;;;;;2115645;28;20047;-54
2022/02/01 03:12:21;;;;;;;14.23;6.65;;;;;;;;;;2110005;28;20090;-55
2022/02/01 03:13:26;;;;;;;8.60;4.50;;;;;;;;;;2108500;28;20485;-55
2022/02/01 03:14:41;;;;;;;11.13;4.70;;;;;;;;;;2109201;27;20081;-55
2022/02/01 03:15:48;;;;;;;10.75;4.38;;;;;;;;;;2116641;28;20047;-55
2022/02/01 03:16:57;;;;;;;8.52;4.03;;;;;;;;;;2116445;27;20050;-55
2022/02/01 03:20:37;;;;;;;9.18;5.07;;;;;;;;;;2110657;28;20131;-55
2022/02/01 03:21:38;;;;;;;12.73;5.23;;;;;;;;;;2115300;28;20048;-55
2022/02/01 03:22:39;;;;;;;13.82;5.45;;;;;;;;;;2115615;28;20127;-56
2022/02/01 03:23:40;;;;;;;14.70;6.38;;;;;;;;;;2112127;28;20050;-54
2022/02/01 03:24:42;;;;;;;18.53;6.10;;;;;;;;;;2115215;28;20048;-56
2022/02/01 03:25:42;;;;;;;14.48;6.40;;;;;;;;;;2113705;28;20130;-55
2022/02/01 03:26:44;;;;;;;19.40;9.05;;;;;;;;;;2112781;28;20508;-55
2022/02/01 03:27:45;;;;;;;10.98;6.03;;;;;;;;;;2115398;28;20146;-55
2022/02/01 03:28:46;;;;;;;16.88;5.82;;;;;;;;;;2112775;28;20056;-55
2022/02/01 03:29:47;;;;;;;17.02;7.00;;;;;;;;;;2114992;28;20138;-55
2022/02/01 03:30:48;;;;;;;12.10;5.85;;;;;;;;;;2115147;28;20135;-55
2022/02/01 03:31:49;;;;;;;13.93;5.45;;;;;;;;;;2109349;28;20127;-56
2022/02/01 03:32:50;;;;;;;14.20;6.10;;;;;;;;;;2115339;28;20492;-54
2022/02/01 03:33:51;;;;;;;15.90;6.47;;;;;;;;;;2115495;28;20074;-55
2022/02/01 03:34:53;;;;;;;12.95;5.55;;;;;;;;;;2109777;28;20557;-55
2022/02/01 03:35:54;;;;;;;12.27;5.57;;;;;;;;;;2106792;28;20087;-55
2022/02/01 03:36:55;;;;;;;14.53;6.00;;;;;;;;;;2108864;28;20425;-55
2022/02/01 03:37:57;;;;;;;15.35;6.05;;;;;;;;;;2107486;28;20083;-55
2022/02/01 03:39:00;;;;;;;15.77;7.60;;;;;;;;;;2106827;28;20131;-55
2022/02/01 03:40:01;;;;;;;15.55;6.10;;;;;;;;;;2109693;28;20047;-56
2022/02/01 03:41:03;;;;;;;11.50;5.43;;;;;;;;;;2106610;28;20040;-55
2022/02/01 03:42:04;;;;;;;11.63;5.47;;;;;;;;;;2106780;28;20493;-56
2022/02/01 03:43:05;;;;;;;10.48;5.07;;;;;;;;;;2108791;28;20071;-55
2022/02/01 03:44:06;;;;;;;11.63;5.80;;;;;;;;;;2115028;28;20069;-55
2022/02/01 03:45:08;;;;;;;10.48;5.30;;;;;;;;;;2115035;28;20039;-55
2022/02/01 03:46:09;;;;;;;10.93;5.05;;;;;;;;;;2109913;28;20091;-54
2022/02/01 03:47:10;;;;;;;11.63;5.35;;;;;;;;;;2115171;28;20127;-55
2022/02/01 03:48:11;;;;;;;11.55;5.45;;;;;;;;;;2115272;28;20130;-55
2022/02/01 03:49:12;;;;;;;12.15;5.65;;;;;;;;;;2112018;28;20479;-56
2022/02/01 03:50:13;;;;;;;14.43;6.05;;;;;;;;;;2115081;28;20134;-55
2022/02/01 03:51:15;;;;;;;21.02;6.57;;;;;;;;;;2113103;28;20039;-55
2022/02/01 03:52:15;;;;;;;14.57;7.40;;;;;;;;;;2113823;28;20048;-56
2022/02/01 03:53:17;;;;;;;17.77;7.10;;;;;;;;;;2115422;28;20069;-55
2022/02/01 03:54:18;;;;;;;17.00;7.85;;;;;;;;;;2112084;28;20101;-54
2022/02/01 03:55:20;;;;;;;18.48;7.22;;;;;;;;;;2106554;28;20052;-55
2022/02/01 03:56:21;;;;;;;19.98;8.32;;;;;;;;;;2106528;28;20055;-54
2022/02/01 03:57:22;;;;;;;22.25;9.48;;;;;;;;;;2111103;28;20052;-55
2022/02/01 03:58:23;;;;;;;21.65;7.47;;;;;;;;;;2114979;28;20521;-55
2022/02/01 03:59:25;;;;;;;22.48;8.27;;;;;;;;;;2115518;28;20059;-55
2022/02/01 04:00:25;;;;;;;18.45;8.52;;;;;;;;;;2107626;28;20051;-55
2022/02/01 04:01:29;;;;;;;16.90;6.70;;;;;;;;;;2106468;28;20063;-55
2022/02/01 04:02:31;;;;;;;23.73;8.45;;;;;;;;;;2108537;28;20123;-55
2022/02/01 04:03:33;;;;;;;18.88;7.70;;;;;;;;;;2107552;28;20143;-55
2022/02/01 04:04:34;;;;;;;25.92;9.18;;;;;;;;;;2106609;28;20119;-55
2022/02/01 04:05:35;;;;;;;20.02;7.63;;;;;;;;;;2107551;28;20044;-55
2022/02/01 04:06:36;;;;;;;21.23;6.90;;;;;;;;;;2114439;28;20123;-55
2022/02/01 04:07:42;;;;;;;16.10;7.90;;;;;;;;;;2115292;28;20075;-56
2022/02/01 04:08:44;;;;;;;14.93;6.57;;;;;;;;;;2113195;28;20134;-55
2022/02/01 04:09:45;;;;;;;13.43;6.30;;;;;;;;;;2114946;28;20082;-56
2022/02/01 04:10:49;;;;;;;14.65;6.30;;;;;;;;;;2110103;28;20048;-56
2022/02/01 04:11:50;;;;;;;15.77;6.03;;;;;;;;;;2111622;28;20127;-55
2022/02/01 04:12:52;;;;;;;18.88;7.07;;;;;;;;;;2115200;28;20284;-55
2022/02/01 04:13:53;;;;;;;;;;;;;;;;;;2113624;28;20078;-55
2022/02/01 04:14:57;;;;;;;15.55;5.55;;;;;;;;;;2107345;28;20363;-55
2022/02/01 04:15:58;;;;;;;17.05;6.57;;;;;;;;;;2106710;28;20209;-55
2022/02/01 04:17:00;;;;;;;19.30;6.93;;;;;;;;;;2109402;28;20044;-55
2022/02/01 04:18:01;;;;;;;14.45;6.07;;;;;;;;;;2106596;28;20052;-54
2022/02/01 04:19:05;;;;;;;16.50;7.10;;;;;;;;;;2106719;28;20101;-55
2022/02/01 04:20:06;;;;;;;17.30;7.15;;;;;;;;;;2111654;28;20323;-55
2022/02/01 04:21:07;;;;;;;19.38;7.35;;;;;;;;;;2114856;28;20429;-55
2022/02/01 04:22:08;;;;;;;15.93;6.78;;;;;;;;;;2114305;28;20290;-55
2022/02/01 04:23:09;;;;;;;12.90;5.93;;;;;;;;;;2111409;28;20232;-55
2022/02/01 04:24:10;;;;;;;12.57;5.13;;;;;;;;;;2114932;28;20464;-55
2022/02/01 04:25:11;;;;;;;19.80;7.05;;;;;;;;;;2113317;28;20053;-54
2022/02/01 04:26:13;;;;;;;13.02;5.35;;;;;;;;;;2113217;28;20532;-55
2022/02/01 04:27:27;;;;;;;16.75;7.22;;;;;;;;;;2114862;28;20126;-55
2022/02/01 04:28:29;;;;;;;13.75;5.03;;;;;;;;;;2110506;28;20042;-54
2022/02/01 04:29:30;;;;;;;13.23;5.90;;;;;;;;;;2114797;28;20484;-55
2022/02/01 04:30:31;;;;;;;16.63;5.97;;;;;;;;;;2114629;28;20408;-54
2022/02/01 04:31:32;;;;;;;14.65;6.22;;;;;;;;;;2111617;28;20477;-55
2022/02/01 04:32:34;;;;;;;13.77;5.57;;;;;;;;;;2114816;28;20169;-54
2022/02/01 04:33:35;;;;;;;;;;;;;;;;;;2112033;28;20400;-55
2022/02/01 04:34:36;;;;;;;14.82;5.90;;;;;;;;;;2111202;28;19920;-54
2022/02/01 04:35:39;;;;;;;14.30;6.28;;;;;;;;;;2114788;28;20051;-55
2022/02/01 04:36:41;;;;;;;19.80;7.20;;;;;;;;;;2111551;28;20075;-55
2022/02/01 04:37:42;;;;;;;15.35;6.22;;;;;;;;;;2113440;28;20240;-55
2022/02/01 04:38:49;;;;;;;18.33;7.20;;;;;;;;;;2114854;28;20058;-54
2022/02/01 04:39:50;;;;;;;21.85;8.02;;;;;;;;;;2109977;28;20774;-54
2022/02/01 04:40:54;;;;;;;19.70;6.90;;;;;;;;;;2114644;28;20051;-55
2022/02/01 04:41:55;;;;;;;19.75;7.13;;;;;;;;;;2114304;28;20476;-54
2022/02/01 04:42:56;;;;;;;15.40;6.97;;;;;;;;;;2111027;28;20039;-54
2022/02/01 04:43:58;;;;;;;16.85;6.43;;;;;;;;;;2114625;28;20517;-55
2022/02/01 04:44:59;;;;;;;18.00;6.78;;;;;;;;;;2113666;28;20416;-55
2022/02/01 04:46:03;;;;;;;22.02;6.57;;;;;;;;;;2112686;28;20174;-55
2022/02/01 04:47:05;;;;;;;19.23;7.82;;;;;;;;;;2114631;28;20442;-55
2022/02/01 04:48:06;;;;;;;19.73;7.60;;;;;;;;;;2109503;28;20081;-55
2022/02/01 04:49:09;;;;;;;15.27;6.82;;;;;;;;;;2114206;28;20112;-55
2022/02/01 04:50:13;;;;;;;15.18;6.93;;;;;;;;;;2114597;28;20071;-54
2022/02/01 04:51:14;;;;;;;13.35;5.05;;;;;;;;;;2111530;28;20515;-55
2022/02/01 04:52:15;;;;;;;18.77;7.28;;;;;;;;;;2114596;28;20054;-55
2022/02/01 04:53:16;;;;;;;15.30;6.80;;;;;;;;;;2115188;28;20055;-55
2022/02/01 04:54:17;;;;;;;16.75;6.85;;;;;;;;;;2111903;28;20067;-54
2022/02/01 04:55:19;;;;;;;14.85;7.65;;;;;;;;;;2114672;28;20417;-54
2022/02/01 04:56:24;;;;;;;16.45;7.03;;;;;;;;;;2112939;28;20047;-55
2022/02/01 04:57:26;;;;;;;23.15;8.98;;;;;;;;;;2112368;28;20046;-54
2022/02/01 04:58:27;;;;;;;23.08;7.32;;;;;;;;;;2114501;28;20509;-55
2022/02/01 04:59:28;;;;;;;20.23;7.15;;;;;;;;;;2112985;28;20130;-54
2022/02/01 05:00:30;;;;;;;20.47;8.00;;;;;;;;;;2114406;28;20048;-55
2022/02/01 05:01:37;;;;;;;;;;;;;;;;;;2110573;28;20131;-55
2022/02/01 05:02:39;;;;;;;14.63;5.65;;;;;;;;;;2111878;28;19950;-55
2022/02/01 05:03:41;;;;;;;18.98;7.18;;;;;;;;;;2114564;28;20047;-55
2022/02/01 05:04:42;;;;;;;18.75;7.15;;;;;;;;;;2114521;28;20075;-55
2022/02/01 05:05:43;;;;;;;20.08;7.68;;;;;;;;;;2111366;28;20054;-54
2022/02/01 05:06:44;;;;;;;26.05;9.25;;;;;;;;;;2110526;28;20036;-55
2022/02/01 05:07:45;;;;;;;18.85;8.85;;;;;;;;;;2108047;28;20043;-55
2022/02/01 05:08:53;;;;;;;18.20;7.18;;;;;;;;;;2107041;28;20091;-54
2022/02/01 05:09:57;;;;;;;19.90;8.05;;;;;;;;;;2106195;28;20083;-55
2022/02/01 05:11:00;;;;;;;20.10;7.15;;;;;;;;;;2110031;28;20040;-54
2022/02/01 05:12:05;;;;;;;19.23;8.98;;;;;;;;;;2114514;28;20454;-54
2022/02/01 05:14:33;;;;;;;20.25;7.72;;;;;;;;;;2098960;28;20064;-54
2022/02/01 05:15:36;;;;;;;18.95;6.82;;;;;;;;;;2106154;28;20143;-55
2022/02/01 05:16:56;;;;;;;16.92;6.63;;;;;;;;;;2108822;28;20482;-55
2022/02/01 05:17:57;;;;;;;19.58;7.60;;;;;;;;;;2106179;28;20097;-55
2022/02/01 05:19:01;;;;;;;20.77;8.37;;;;;;;;;;2108017;28;20047;-55
2022/02/01 05:20:15;;;;;;;17.45;6.03;;;;;;;;;;2113159;28;20043;-45
2022/02/01 05:21:21;;;;;;;18.45;6.53;;;;;;;;;;2114647;28;20132;-45
2022/02/01 05:22:23;;;;;;;16.30;6.75;;;;;;;;;;2111566;28;20089;-46
2022/02/01 05:23:24;;;;;;;15.35;6.47;;;;;;;;;;2114378;28;20130;-45
2022/02/01 05:24:25;;;;;;;16.98;6.45;;;;;;;;;;2114050;28;20069;-45
2022/02/01 05:25:29;;;;;;;19.35;7.22;;;;;;;;;;2106615;28;20089;-45
2022/02/01 05:26:31;;;;;;;19.00;7.70;;;;;;;;;;2105952;28;20123;-45
2022/02/01 05:27:32;;;;;;;;;;;;;;;;;;2108496;28;20130;-45
2022/02/01 05:28:36;;;;;;;23.75;8.20;;;;;;;;;;2106903;28;19924;-45
2022/02/01 05:29:38;;;;;;;23.20;7.72;;;;;;;;;;2106092;28;20048;-45
2022/02/01 05:30:39;;;;;;;18.38;7.15;;;;;;;;;;2107541;28;20150;-44
2022/02/01 05:31:40;;;;;;;20.58;8.13;;;;;;;;;;2106135;28;20052;-45
2022/02/01 05:32:41;;;;;;;14.60;6.87;;;;;;;;;;2105951;28;20055;-46
2022/02/01 05:33:42;;;;;;;19.00;7.55;;;;;;;;;;2110025;28;20047;-45
2022/02/01 05:34:43;;;;;;;15.02;7.47;;;;;;;;;;2106019;28;20048;-44
2022/02/01 05:35:44;;;;;;;19.13;7.18;;;;;;;;;;2107190;28;20119;-44
2022/02/01 05:36:45;;;;;;;17.13;7.10;;;;;;;;;;2110953;28;20492;-46
2022/02/01 05:37:47;;;;;;;16.98;7.78;;;;;;;;;;2114340;28;20209;-45
2022/02/01 05:38:50;;;;;;;21.17;8.27;;;;;;;;;;2113608;28;20192;-45
2022/02/01 05:39:51;;;;;;;20.38;8.25;;;;;;;;;;2112520;28;20069;-44
2022/02/01 05:40:52;;;;;;;18.02;7.70;;;;;;;;;;2114390;28;20177;-44
2022/02/01 05:41:56;;;;;;;18.67;7.65;;;;;;;;;;2111729;28;20458;-46
2022/02/01 05:43:00;;;;;;;18.98;7.35;;;;;;;;;;2106391;28;20050;-49
2022/02/01 05:44:02;;;;;;;14.85;6.55;;;;;;;;;;2106077;28;20048;-45
2022/02/01 05:45:03;;;;;;;;;;;;;;;;;;2108264;28;20048;-44
2022/02/01 05:46:04;;;;;;;21.20;6.40;;;;;;;;;;2114408;28;19920;-44
2022/02/01 05:47:06;;;;;;;14.98;5.32;;;;;;;;;;2115281;28;20071;-54
2022/02/01 05:48:09;;;;;;;14.40;5.18;;;;;;;;;;2110548;28;20047;-54
2022/02/01 05:49:10;;;;;;;24.45;6.95;;;;;;;;;;2114236;28;20098;-54
2022/02/01 05:50:11;;;;;;;17.88;7.28;;;;;;;;;;2111759;28;20177;-53
2022/02/01 05:51:12;;;;;;;15.65;6.22;;;;;;;;;;2106870;28;20055;-55
2022/02/01 05:52:13;;;;;;;18.77;7.82;;;;;;;;;;2106087;28;20131;-54
2022/02/01 05:53:14;;;;;;;14.55;6.93;;;;;;;;;;2108689;28;20055;-54
2022/02/01 05:54:16;;;;;;;16.67;7.28;;;;;;;;;;2113574;28;20043;-54
2022/02/01 05:55:17;;;;;;;16.48;6.82;;;;;;;;;;2114232;28;20580;-54
2022/02/01 05:56:18;;;;;;;19.73;7.78;;;;;;;;;;2109823;28;20074;-55
2022/02/01 05:57:19;;;;;;;19.05;6.22;;;;;;;;;;2114267;28;20050;-54
2022/02/01 05:58:21;;;;;;;12.18;5.45;;;;;;;;;;2113982;28;20077;-53
2022/02/01 05:59:23;;;;;;;13.70;6.75;;;;;;;;;;2111329;28;20071;-54
2022/02/01 06:00:24;;;;;;;18.77;5.95;;;;;;;;;;2114138;28;20557;-53
2022/02/01 06:01:25;;;;;;;15.45;5.07;;;;;;;;;;2110923;28;20133;-54
2022/02/01 06:02:26;;;;;;;19.75;6.97;;;;;;;;;;2111569;28;20096;-53
2022/02/01 06:03:28;;;;;;;22.38;7.47;;;;;;;;;;2106233;28;20052;-54
2022/02/01 06:04:28;;;;;;;17.98;6.72;;;;;;;;;;2107160;28;20055;-44
2022/02/01 06:05:30;;;;;;;16.25;7.22;;;;;;;;;;2112935;28;20477;-46
2022/02/01 06:06:31;;;;;;;22.10;8.10;;;;;;;;;;2114214;28;20079;-44
2022/02/01 06:07:33;;;;;;;16.83;6.07;;;;;;;;;;2111491;28;20493;-44
2022/02/01 06:08:33;;;;;;;15.48;5.95;;;;;;;;;;2114347;28;20584;-54
2022/02/01 06:09:35;;;;;;;15.00;6.88;;;;;;;;;;2114249;28;20044;-53
2022/02/01 06:10:35;;;;;;;15.60;6.15;;;;;;;;;;2109618;28;20428;-53
2022/02/01 06:11:37;;;;;;;12.13;6.90;;;;;;;;;;2114213;28;20035;-53
2022/02/01 06:12:38;;;;;;;23.63;7.90;;;;;;;;;;2115335;28;20077;-43
2022/02/01 06:13:39;;;;;;;21.15;7.38;;;;;;;;;;2110455;28;20065;-44
2022/02/01 06:14:41;;;;;;;21.52;7.18;;;;;;;;;;2114186;28;20054;-47
2022/02/01 06:15:42;;;;;;;20.85;7.82;;;;;;;;;;2113801;28;20465;-45
2022/02/01 06:16:43;;;;;;;24.07;8.93;;;;;;;;;;2112810;28;20081;-45
2022/02/01 06:17:44;;;;;;;17.08;7.78;;;;;;;;;;2114067;28;20649;-47
2022/02/01 06:18:46;;;;;;;19.38;7.13;;;;;;;;;;2110832;28;20119;-45
2022/02/01 06:19:47;;;;;;;23.48;8.25;;;;;;;;;;2113573;28;20167;-43
2022/02/01 06:20:48;;;;;;;14.52;7.18;;;;;;;;;;2114221;28;20130;-44
2022/02/01 06:21:50;;;;;;;13.23;6.80;;;;;;;;;;2109597;28;20496;-44
2022/02/01 06:22:51;;;;;;;19.42;7.88;;;;;;;;;;2114086;28;20071;-44
2022/02/01 06:23:52;;;;;;;19.83;7.63;;;;;;;;;;2113843;28;20048;-45
2022/02/01 06:24:53;;;;;;;20.83;7.70;;;;;;;;;;2109993;28;20086;-44
2022/02/01 06:25:56;;;;;;;16.98;6.63;;;;;;;;;;2114136;28;20126;-44
2022/02/01 06:26:57;;;;;;;14.63;6.60;;;;;;;;;;2110714;28;20074;-45
2022/02/01 06:27:58;;;;;;;23.80;8.85;;;;;;;;;;2106595;28;20127;-44
2022/02/01 06:28:59;;;;;;;26.23;9.17;;;;;;;;;;2105773;28;20052;-44
2022/02/01 06:30:00;;;;;;;19.20;7.30;;;;;;;;;;2105706;28;20086;-44
2022/02/01 06:31:07;;;;;;;22.42;8.27;;;;;;;;;;2105621;28;20048;-45
2022/02/01 06:32:09;;;;;;;20.52;8.43;;;;;;;;;;2105627;28;20096;-45
2022/02/01 06:33:11;;;;;;;17.80;6.87;;;;;;;;;;2110945;28;20043;-46
2022/02/01 06:34:13;;;;;;;20.00;7.80;;;;;;;;;;2114007;28;20462;-44
2022/02/01 06:35:14;;;;;;;20.63;8.40;;;;;;;;;;2113764;28;20088;-44
2022/02/01 06:36:15;;;;;;;17.13;7.60;;;;;;;;;;2111096;28;20397;-45
2022/02/01 06:37:16;;;;;;;16.13;7.55;;;;;;;;;;2114172;28;20123;-44
2022/02/01 06:38:18;;;;;;;28.00;9.75;;;;;;;;;;2113244;28;20054;-45
2022/02/01 06:39:20;;;;;;;19.83;8.07;;;;;;;;;;2112010;28;20058;-44
2022/02/01 06:40:21;;;;;;;26.50;9.75;;;;;;;;;;2114148;28;20075;-45
2022/02/01 06:41:22;;;;;;;17.55;7.95;;;;;;;;;;2111943;28;20451;-44
2022/02/01 06:42:24;;;;;;;19.40;7.85;;;;;;;;;;2105636;28;20074;-44
2022/02/01 06:43:27;;;;;;;23.05;9.23;;;;;;;;;;2105754;28;20076;-46
2022/02/01 06:44:28;;;;;;;22.65;9.25;;;;;;;;;;2105856;28;20048;-53
2022/02/01 06:45:30;;;;;;;20.35;8.25;;;;;;;;;;2105723;28;20416;-45
2022/02/01 06:46:31;;;;;;;22.10;7.82;;;;;;;;;;2105401;28;20058;-45
2022/02/01 06:47:32;;;;;;;24.42;9.43;;;;;;;;;;2106931;28;20051;-45
2022/02/01 06:48:34;;;;;;;19.67;7.10;;;;;;;;;;2105698;28;20412;-45
2022/02/01 06:49:35;;;;;;;29.52;10.82;;;;;;;;;;2108703;28;20079;-45
2022/02/01 06:50:36;;;;;;;27.25;10.82;;;;;;;;;;2106260;28;20040;-46
2022/02/01 06:51:38;;;;;;;23.30;9.90;;;;;;;;;;2105658;28;20056;-44
2022/02/01 06:52:39;;;;;;;23.45;9.35;;;;;;;;;;2108204;28;20052;-54
2022/02/01 06:53:44;;;;;;;22.02;8.93;;;;;;;;;;2112746;28;20039;-54
2022/02/01 06:54:45;;;;;;;22.08;8.93;;;;;;;;;;2115621;28;20067;-53
2022/02/01 06:55:58;;;;;;;27.87;9.17;;;;;;;;;;2112238;28;20074;-54
2022/02/01 06:56:59;;;;;;;15.70;7.80;;;;;;;;;;2115449;28;20311;-53
2022/02/01 06:58:04;;;;;;;18.92;7.00;;;;;;;;;;2115149;28;20047;-55
2022/02/01 06:59:06;;;;;;;18.52;7.65;;;;;;;;;;2109787;28;20135;-53
2022/02/01 07:00:08;;;;;;;19.65;7.22;;;;;;;;;;2107448;28;20048;-47
2022/02/01 07:01:09;;;;;;;;;;;;;;;;;;2109628;28;20097;-49
2022/02/01 07:02:11;;;;;;;18.08;6.90;;;;;;;;;;2113688;28;20089;-45
2022/02/01 07:03:13;;;;;;;20.88;7.97;;;;;;;;;;2115317;28;20500;-46
2022/02/01 07:04:14;;;;;;;24.63;8.50;;;;;;;;;;2111163;28;20228;-46
2022/02/01 07:05:15;;;;;;;20.85;7.85;;;;;;;;;;2115280;28;20043;-45
2022/02/01 07:06:16;;;;;;;19.43;7.60;;;;;;;;;;2115431;28;20082;-46
2022/02/01 07:07:18;;;;;;;15.82;6.38;;;;;;;;;;2111419;28;20280;-45
2022/02/01 07:08:20;;;;;;;20.38;6.03;;;;;;;;;;2115518;28;20050;-45